Time;durP1;ratioP1;P1;durP2;ratioP2;P2;SDS_P1;SDS_P2;PMS_P1;PMS_P2;Temp;Humidity;BMP_temperature;BMP_pressure;BME280_temperature;BME280_humidity;BME280_pressure;Samples;Min_cycle;Max_cycle;Signal;HPM_P1;HPM_P2
2022/10/03 00:00:59;;;;;;;35.30;9.57;;;12.20;99.90;;;;;;4955451;29;20113;-74
2022/10/03 00:03:33;;;;;;;37.60;10.23;;;12.30;99.90;;;;;;4973679;29;20039;-74
2022/10/03 00:06:10;;;;;;;37.10;11.13;;;12.20;99.90;;;;;;4957115;29;20027;-74
2022/10/03 00:09:02;;;;;;;32.33;10.17;;;12.10;99.90;;;;;;4954690;29;20030;-74
2022/10/03 00:11:53;;;;;;;23.17;9.18;;;12.20;99.90;;;;;;4947418;29;20682;-74
2022/10/03 00:14:47;;;;;;;28.65;9.25;;;12.10;99.90;;;;;;4954151;29;20408;-75
2022/10/03 00:17:23;;;;;;;26.25;8.15;;;12.10;99.90;;;;;;5046952;28;20132;-75
2022/10/03 00:20:19;;;;;;;32.83;8.60;;;12.20;99.90;;;;;;5054061;28;20061;-75
2022/10/03 00:22:58;;;;;;;30.05;9.38;;;12.10;99.90;;;;;;5036014;28;20078;-74
2022/10/03 00:25:39;;;;;;;39.38;8.55;;;12.10;99.90;;;;;;5036098;28;20518;-75
2022/10/03 00:28:16;;;;;;;26.17;8.52;;;12.00;99.90;;;;;;5035854;28;20025;-75
2022/10/03 00:31:07;;;;;;;21.00;7.65;;;11.90;99.90;;;;;;5053512;28;20036;-75
2022/10/03 00:34:25;;;;;;;15.02;8.10;;;11.80;99.90;;;;;;5053632;28;20018;-75
2022/10/03 00:37:18;;;;;;;16.67;8.00;;;11.80;99.90;;;;;;5053862;28;20101;-75
2022/10/03 00:40:04;;;;;;;16.98;7.13;;;11.90;99.90;;;;;;5037224;28;20037;-75
2022/10/03 00:42:56;;;;;;;13.63;7.35;;;11.70;99.90;;;;;;5035757;28;20029;-75
2022/10/03 00:46:09;;;;;;;13.13;7.32;;;11.80;99.90;;;;;;5035366;28;20028;-75
2022/10/03 00:48:37;;;;;;;12.82;7.25;;;11.80;99.90;;;;;;4992002;28;20026;-75
2022/10/03 00:51:18;;;;;;;16.27;8.02;;;11.70;99.90;;;;;;4991498;28;20478;-75
2022/10/03 00:53:58;;;;;;;12.05;7.18;;;11.70;99.90;;;;;;4975742;28;20061;-75
2022/10/03 00:56:56;;;;;;;11.82;7.05;;;11.80;99.90;;;;;;4991826;28;20080;-75
2022/10/03 00:59:47;;;;;;;10.27;7.10;;;11.90;99.90;;;;;;4991859;28;20030;-74
2022/10/03 01:02:45;;;;;;;10.02;6.57;;;12.00;99.90;;;;;;4991787;28;20575;-74
2022/10/03 01:05:45;;;;;;;8.65;5.80;;;12.00;99.90;;;;;;4975662;28;20530;-74
2022/10/03 01:08:29;;;;;;;11.73;5.97;;;12.00;99.90;;;;;;4975892;28;20027;-74
2022/10/03 01:11:16;;;;;;;8.48;5.70;;;12.10;99.90;;;;;;4976800;28;20018;-74
2022/10/03 01:13:57;;;;;;;7.45;5.20;;;12.00;99.90;;;;;;4992436;28;20439;-74
2022/10/03 01:16:42;;;;;;;11.85;5.88;;;12.20;99.90;;;;;;4991961;28;20476;-74
2022/10/03 01:19:44;;;;;;;7.40;5.00;;;12.20;99.90;;;;;;5011375;28;20099;-74
2022/10/03 01:22:35;;;;;;;9.45;5.75;;;12.20;99.90;;;;;;4984690;28;20429;-74
2022/10/03 01:25:11;;;;;;;9.25;5.68;;;12.20;99.90;;;;;;5032923;28;20482;-74
2022/10/03 01:30:57;;;;;;;7.65;5.50;;;12.30;99.90;;;;;;5053424;28;20377;-73
2022/10/03 01:33:32;;;;;;;6.85;5.10;;;12.30;99.90;;;;;;5034586;28;20021;-74
2022/10/03 01:36:19;;;;;;;7.63;5.18;;;12.30;99.90;;;;;;5052266;28;20041;-74
2022/10/03 01:38:57;;;;;;;7.72;5.07;;;12.30;99.90;;;;;;5034951;28;20108;-74
2022/10/03 01:41:46;;;;;;;8.52;5.30;;;12.40;99.90;;;;;;5052763;28;20029;-74
2022/10/03 01:44:56;;;;;;;7.47;4.85;;;12.30;99.90;;;;;;5035396;28;20040;-74
2022/10/03 01:47:33;;;;;;;8.18;4.97;;;12.20;99.90;;;;;;5037258;28;20036;-75
2022/10/03 01:50:03;;;;;;;8.95;5.88;;;12.20;99.90;;;;;;5053286;28;20053;-75
2022/10/03 01:52:47;;;;;;;7.43;4.55;;;12.30;99.90;;;;;;5052584;28;20028;-75
2022/10/03 01:55:22;;;;;;;7.20;4.72;;;12.20;99.90;;;;;;5052712;28;20029;-75
2022/10/03 01:58:13;;;;;;;8.90;4.93;;;12.20;99.90;;;;;;5052473;28;20068;-75
2022/10/03 02:01:08;;;;;;;9.43;5.25;;;12.20;99.90;;;;;;5052864;28;20435;-75
2022/10/03 02:03:56;;;;;;;5.70;4.30;;;12.30;99.90;;;;;;5034646;28;20539;-75
2022/10/03 02:06:31;;;;;;;5.88;4.43;;;12.20;99.90;;;;;;5023894;28;20132;-75
2022/10/03 02:08:57;;;;;;;7.80;4.80;;;12.10;99.90;;;;;;5034710;28;20032;-75
2022/10/03 02:11:33;;;;;;;9.87;4.80;;;12.00;99.90;;;;;;5052571;28;20021;-75
2022/10/03 02:14:26;;;;;;;13.25;8.98;;;12.10;99.90;;;;;;5052465;28;20025;-75
2022/10/03 02:17:00;;;;;;;8.63;5.70;;;12.00;99.90;;;;;;5034175;28;20029;-75
2022/10/03 02:19:35;;;;;;;8.10;4.97;;;12.10;99.90;;;;;;5034713;28;20021;-75
2022/10/03 02:22:01;;;;;;;6.82;4.68;;;12.00;99.90;;;;;;5034819;28;20387;-75
2022/10/03 02:24:36;;;;;;;9.05;5.13;;;11.90;99.90;;;;;;5052314;28;20017;-75
2022/10/03 02:27:29;;;;;;;8.80;5.30;;;11.90;99.90;;;;;;5034377;28;20021;-75
2022/10/03 02:30:12;;;;;;;7.68;5.63;;;11.90;99.90;;;;;;5053606;28;20020;-75
2022/10/03 02:33:03;;;;;;;12.05;7.20;;;11.80;99.90;;;;;;5035589;28;20105;-75
2022/10/03 02:35:59;;;;;;;9.45;5.93;;;11.70;99.90;;;;;;5035992;28;20071;-75
2022/10/03 02:39:03;;;;;;;7.72;4.90;;;11.60;99.90;;;;;;5038059;28;20032;-75
2022/10/03 02:41:31;;;;;;;8.00;4.97;;;11.70;99.90;;;;;;5037963;28;20032;-75
2022/10/03 02:44:24;;;;;;;12.32;6.63;;;11.60;99.90;;;;;;5038795;28;20082;-75
2022/10/03 02:47:26;;;;;;;8.57;5.15;;;11.50;99.90;;;;;;5045940;28;20039;-76
2022/10/03 02:50:22;;;;;;;9.05;5.40;;;11.50;99.90;;;;;;5057112;28;20048;-76
2022/10/03 02:53:16;;;;;;;9.95;5.78;;;11.50;99.90;;;;;;5037808;28;20036;-75
2022/10/03 02:56:25;;;;;;;10.75;7.32;;;11.50;99.90;;;;;;5056088;28;20412;-75
2022/10/03 02:59:27;;;;;;;10.23;6.43;;;11.40;99.90;;;;;;5056350;28;20025;-76
2022/10/03 03:02:20;;;;;;;7.82;5.85;;;11.40;99.90;;;;;;5058506;28;20044;-76
2022/10/03 03:05:07;;;;;;;9.75;5.30;;;11.50;99.90;;;;;;5040435;28;20060;-75
2022/10/03 03:07:50;;;;;;;10.60;6.82;;;11.50;99.90;;;;;;5058580;28;20025;-76
2022/10/03 03:10:39;;;;;;;8.85;5.35;;;11.60;99.90;;;;;;5056896;28;20049;-76
2022/10/03 03:13:20;;;;;;;8.80;5.03;;;11.60;99.90;;;;;;5055623;28;20021;-76
2022/10/03 03:16:04;;;;;;;12.20;5.28;;;11.70;99.90;;;;;;5037519;28;20121;-76
2022/10/03 03:19:16;;;;;;;7.25;4.95;;;11.90;99.90;;;;;;5037439;28;20091;-75
2022/10/03 03:22:04;;;;;;;7.95;4.63;;;12.00;99.90;;;;;;5012561;28;20056;-76
2022/10/03 03:24:29;;;;;;;;;;;12.00;99.90;;;;;;5037602;28;20029;-75
2022/10/03 03:27:12;;;;;;;8.43;4.97;;;12.00;99.90;;;;;;5055280;28;19948;-74
2022/10/03 03:29:49;;;;;;;8.77;4.53;;;12.00;99.90;;;;;;5055149;28;20025;-75
2022/10/03 03:32:14;;;;;;;;;;;12.10;99.90;;;;;;5055437;28;20110;-75
2022/10/03 03:34:52;;;;;;;6.57;4.47;;;12.10;99.90;;;;;;5055179;28;19908;-75
2022/10/03 03:37:35;;;;;;;7.97;5.18;;;12.00;99.90;;;;;;5037008;28;20040;-75
2022/10/03 03:40:11;;;;;;;9.82;6.82;;;12.00;99.90;;;;;;5055041;28;20032;-75
2022/10/03 03:42:55;;;;;;;16.20;9.40;;;11.90;99.90;;;;;;5037215;28;20486;-75
2022/10/03 03:45:33;;;;;;;17.13;8.52;;;11.90;99.90;;;;;;5037073;28;20478;-75
2022/10/03 03:48:36;;;;;;;15.70;10.18;;;11.90;99.90;;;;;;5036037;28;20482;-75
2022/10/03 03:51:32;;;;;;;13.10;8.48;;;11.90;99.90;;;;;;5038031;28;20017;-75
2022/10/03 03:54:18;;;;;;;8.82;5.70;;;11.90;99.90;;;;;;5055357;28;20032;-74
2022/10/03 03:57:22;;;;;;;10.50;5.20;;;11.90;99.90;;;;;;5032683;28;20080;-74
2022/10/03 04:00:14;;;;;;;8.95;5.72;;;12.00;99.90;;;;;;5034791;28;20113;-74
2022/10/03 04:03:02;;;;;;;7.78;5.50;;;12.10;99.90;;;;;;5034680;28;20025;-74
2022/10/03 04:05:55;;;;;;;7.97;4.90;;;12.10;99.90;;;;;;4989107;28;20041;-75
2022/10/03 04:08:20;;;;;;;9.50;5.93;;;12.20;99.90;;;;;;5016570;28;20032;-74
2022/10/03 04:10:46;;;;;;;7.77;5.57;;;12.20;99.90;;;;;;5017157;28;20112;-74
2022/10/03 04:13:53;;;;;;;7.73;5.87;;;12.30;99.90;;;;;;5016649;28;20282;-74
2022/10/03 04:19:54;;;;;;;12.23;5.65;;;12.10;99.90;;;;;;5054648;28;20040;-74
2022/10/03 04:22:48;;;;;;;8.20;5.88;;;12.10;99.90;;;;;;5054329;28;20052;-74
2022/10/03 04:25:53;;;;;;;10.98;6.25;;;12.30;99.90;;;;;;5036580;28;20067;-74
2022/10/03 04:28:34;;;;;;;8.93;5.32;;;12.40;99.90;;;;;;5040847;28;20025;-74
2022/10/03 04:31:11;;;;;;;11.20;6.65;;;12.40;99.90;;;;;;5065283;28;20021;-74
2022/10/03 04:33:50;;;;;;;;;;;12.30;99.90;;;;;;5037108;28;20021;-75
2022/10/03 04:36:48;;;;;;;7.68;5.55;;;12.20;99.90;;;;;;5053058;28;20029;-75
2022/10/03 04:39:56;;;;;;;7.63;5.38;;;12.30;99.90;;;;;;4977009;28;20030;-73
2022/10/03 04:42:30;;;;;;;9.88;5.55;;;12.20;99.90;;;;;;4944019;28;20033;-73
2022/10/03 04:45:23;;;;;;;8.93;6.10;;;12.10;99.90;;;;;;4975987;28;20077;-73
2022/10/03 04:48:06;;;;;;;9.27;5.55;;;12.20;99.90;;;;;;4975891;28;20113;-73
2022/10/03 04:51:01;;;;;;;8.40;6.07;;;12.20;99.90;;;;;;4991270;28;20034;-73
2022/10/03 04:53:53;;;;;;;10.55;6.28;;;12.10;99.90;;;;;;4992387;28;20113;-73
2022/10/03 04:56:37;;;;;;;9.05;6.40;;;11.90;99.90;;;;;;4975259;28;20037;-73
2022/10/03 04:59:26;;;;;;;9.30;6.25;;;11.90;99.90;;;;;;4975621;28;20031;-73
2022/10/03 05:02:15;;;;;;;9.13;6.70;;;12.00;99.90;;;;;;4975901;28;20074;-73
2022/10/03 05:05:11;;;;;;;8.18;5.63;;;12.00;99.90;;;;;;4975138;28;20041;-73
2022/10/03 05:07:54;;;;;;;9.00;6.05;;;12.00;99.90;;;;;;4992365;28;20563;-73
2022/10/03 05:10:43;;;;;;;9.18;5.45;;;12.00;99.90;;;;;;4991960;28;20509;-73
2022/10/03 05:13:41;;;;;;;9.63;6.22;;;12.00;99.90;;;;;;4975996;28;20027;-73
2022/10/03 05:16:13;;;;;;;13.65;6.30;;;12.10;99.90;;;;;;5028323;28;20032;-74
2022/10/03 05:18:44;;;;;;;9.57;6.32;;;12.20;99.90;;;;;;5053853;28;20466;-73
2022/10/03 05:21:23;;;;;;;13.23;6.82;;;12.00;99.90;;;;;;5053154;28;20024;-72
2022/10/03 05:24:08;;;;;;;8.40;6.70;;;12.00;99.90;;;;;;5035284;28;20032;-72
2022/10/03 05:26:49;;;;;;;9.40;6.13;;;12.10;99.90;;;;;;5036702;28;20537;-73
2022/10/03 05:29:33;;;;;;;8.93;5.93;;;12.10;99.90;;;;;;5053518;28;20021;-73
2022/10/03 05:32:11;;;;;;;10.07;6.90;;;12.00;99.90;;;;;;5035637;28;20021;-73
2022/10/03 05:35:17;;;;;;;8.57;6.70;;;12.00;99.90;;;;;;5053364;28;20462;-73
2022/10/03 05:37:43;;;;;;;11.55;6.65;;;12.00;99.90;;;;;;5035671;28;20025;-73
2022/10/03 05:40:15;;;;;;;13.77;7.57;;;12.10;99.90;;;;;;5035546;28;20047;-73
2022/10/03 05:43:20;;;;;;;14.07;7.53;;;12.10;99.90;;;;;;5035303;28;20025;-73
2022/10/03 05:46:02;;;;;;;12.60;7.68;;;12.10;99.90;;;;;;5052661;28;20056;-73
2022/10/03 05:48:27;;;;;;;11.27;7.47;;;12.20;99.90;;;;;;5035307;28;20094;-73
2022/10/03 05:51:21;;;;;;;10.53;7.30;;;12.30;99.90;;;;;;5035338;28;20025;-73
2022/10/03 05:54:06;;;;;;;14.88;9.45;;;12.20;99.90;;;;;;5053612;28;20024;-73
2022/10/03 05:56:47;;;;;;;14.15;9.40;;;12.10;99.90;;;;;;5036266;28;20071;-72
2022/10/03 05:59:25;;;;;;;14.93;8.57;;;12.10;99.90;;;;;;5054097;28;20032;-73
2022/10/03 06:01:59;;;;;;;13.27;7.75;;;12.10;99.90;;;;;;5053717;28;20025;-72
2022/10/03 06:04:43;;;;;;;10.82;7.15;;;12.30;99.90;;;;;;5053345;28;20036;-73
2022/10/03 06:07:42;;;;;;;11.55;7.43;;;12.30;99.90;;;;;;5035475;28;20017;-72
2022/10/03 06:10:35;;;;;;;14.15;7.45;;;12.40;99.90;;;;;;5036410;28;20116;-73
2022/10/03 06:13:18;;;;;;;10.98;6.97;;;12.30;99.90;;;;;;5038869;28;20043;-73
2022/10/03 06:16:08;;;;;;;11.85;6.82;;;12.40;99.90;;;;;;5038788;28;20025;-73
2022/10/03 06:18:54;;;;;;;9.68;6.95;;;12.40;99.90;;;;;;5057355;28;20040;-72
2022/10/03 06:21:51;;;;;;;11.80;6.57;;;12.30;99.90;;;;;;5038814;28;20037;-72
2022/10/03 06:24:51;;;;;;;8.38;5.85;;;12.30;99.90;;;;;;5056242;28;20436;-73
2022/10/03 06:27:32;;;;;;;14.25;6.63;;;12.20;99.90;;;;;;5038804;28;20424;-74
2022/10/03 06:30:21;;;;;;;16.63;7.55;;;12.30;99.90;;;;;;5068951;28;20198;-72
2022/10/03 06:32:46;;;;;;;8.65;6.25;;;12.50;99.90;;;;;;5058560;28;20028;-73
2022/10/03 06:35:24;;;;;;;14.77;7.03;;;12.40;99.90;;;;;;5058238;28;20032;-73
2022/10/03 06:38:21;;;;;;;9.68;6.97;;;12.50;99.90;;;;;;5076518;28;20099;-71
2022/10/03 06:41:24;;;;;;;12.77;7.00;;;12.60;99.90;;;;;;5058286;28;20036;-73
2022/10/03 06:44:12;;;;;;;12.18;7.32;;;12.70;99.90;;;;;;5059229;28;20436;-72
2022/10/03 06:47:08;;;;;;;10.57;7.30;;;12.80;99.90;;;;;;5078264;28;20032;-72
2022/10/03 06:50:10;;;;;;;11.07;7.22;;;12.70;99.90;;;;;;5078328;28;20028;-72
2022/10/03 06:53:00;;;;;;;9.25;7.05;;;12.70;99.90;;;;;;5076377;28;20024;-73
2022/10/03 06:56:09;;;;;;;14.10;7.25;;;12.60;99.90;;;;;;5058189;28;20024;-72
2022/10/03 06:59:04;;;;;;;11.70;7.40;;;12.60;99.90;;;;;;5056466;28;20025;-72
2022/10/03 07:01:49;;;;;;;12.77;8.55;;;12.30;99.90;;;;;;5056055;28;20504;-71
2022/10/03 07:04:26;;;;;;;13.52;8.77;;;12.50;99.90;;;;;;5038553;28;20056;-71
2022/10/03 07:07:13;;;;;;;13.00;8.48;;;12.50;99.90;;;;;;5038092;28;20027;-72
2022/10/03 07:10:03;;;;;;;11.23;7.93;;;12.70;99.90;;;;;;5037918;28;20033;-73
2022/10/03 07:12:57;;;;;;;12.48;7.07;;;12.90;99.90;;;;;;5056044;28;20029;-72
2022/10/03 07:15:42;;;;;;;10.93;7.47;;;13.00;99.90;;;;;;5056320;28;20071;-72
2022/10/03 07:18:32;;;;;;;9.68;6.70;;;13.30;99.90;;;;;;5038868;28;20486;-72
2022/10/03 07:21:35;;;;;;;9.73;7.63;;;13.40;99.90;;;;;;5055525;28;20159;-72
2022/10/03 07:24:08;;;;;;;11.18;7.15;;;13.30;99.90;;;;;;5056854;28;20067;-72
2022/10/03 07:27:12;;;;;;;9.90;6.68;;;13.00;99.90;;;;;;5038135;28;20021;-72
2022/10/03 07:30:28;;;;;;;8.43;7.05;;;13.00;99.90;;;;;;5037976;28;20028;-69
2022/10/03 07:33:15;;;;;;;16.58;8.57;;;13.00;99.90;;;;;;5021992;28;20029;-70
2022/10/03 07:39:17;;;;;;;14.93;7.20;;;13.20;99.90;;;;;;5055760;28;20103;-71
2022/10/03 07:41:59;;;;;;;10.60;7.05;;;13.50;99.90;;;;;;5055808;28;20087;-72
2022/10/03 07:45:01;;;;;;;10.57;7.57;;;13.60;99.90;;;;;;5056120;28;20029;-70
2022/10/03 07:47:46;;;;;;;15.30;7.78;;;13.50;99.90;;;;;;5056197;28;20025;-70
2022/10/03 07:50:23;;;;;;;17.50;8.75;;;13.60;99.90;;;;;;5055860;28;20045;-73
2022/10/03 07:53:09;;;;;;;13.63;8.70;;;13.60;99.90;;;;;;5038211;28;20025;-73
2022/10/03 07:56:01;;;;;;;14.25;8.75;;;13.60;99.90;;;;;;5049998;28;20036;-76
2022/10/03 07:58:44;;;;;;;16.67;8.05;;;13.50;99.90;;;;;;5048823;28;20028;-75
2022/10/03 08:01:35;;;;;;;14.82;8.35;;;13.40;99.90;;;;;;5042185;28;20112;-68
2022/10/03 08:04:28;;;;;;;12.80;8.65;;;13.30;99.90;;;;;;5058565;28;20036;-69
2022/10/03 08:07:03;;;;;;;19.88;12.30;;;13.40;99.90;;;;;;5056755;28;20017;-69
2022/10/03 08:10:02;;;;;;;18.92;12.15;;;13.30;99.90;;;;;;5057130;28;20100;-68
2022/10/03 08:12:39;;;;;;;20.95;13.13;;;13.40;99.90;;;;;;5057363;28;20025;-77
2022/10/03 08:15:24;;;;;;;;;;;13.50;99.90;;;;;;5038235;28;20040;-75
2022/10/03 08:18:37;;;;;;;22.38;13.80;;;13.50;99.90;;;;;;5039034;28;19908;-76
2022/10/03 08:21:29;;;;;;;28.73;16.33;;;13.50;99.90;;;;;;4979530;28;20089;-71
2022/10/03 08:24:01;;;;;;;27.98;17.00;;;13.50;99.90;;;;;;5037356;28;20099;-73
2022/10/03 08:26:54;;;;;;;28.00;16.48;;;13.70;99.90;;;;;;5054323;28;20025;-72
2022/10/03 08:29:48;;;;;;;36.13;18.67;;;13.60;99.90;;;;;;5055120;28;20027;-70
2022/10/03 08:32:38;;;;;;;32.20;17.80;;;13.60;99.90;;;;;;5054409;28;20025;-71
2022/10/03 08:35:28;;;;;;;34.42;20.88;;;13.60;99.90;;;;;;5054806;28;20123;-76
2022/10/03 08:38:24;;;;;;;34.60;19.02;;;13.70;99.90;;;;;;5054994;28;20044;-74
2022/10/03 08:41:02;;;;;;;32.78;18.80;;;13.90;99.90;;;;;;5055244;28;20044;-73
2022/10/03 08:44:01;;;;;;;34.05;19.33;;;13.80;99.90;;;;;;5037075;28;20070;-75
2022/10/03 08:46:51;;;;;;;30.67;18.17;;;13.80;99.90;;;;;;5055065;28;20070;-76
2022/10/03 08:49:54;;;;;;;30.45;18.20;;;14.10;99.90;;;;;;5038126;28;20028;-71
2022/10/03 08:52:37;;;;;;;28.27;16.88;;;14.50;99.90;;;;;;5053874;28;20386;-75
2022/10/03 08:55:03;;;;;;;26.30;15.23;;;16.30;99.90;;;;;;5036204;28;20021;-76
2022/10/03 08:57:54;;;;;;;25.97;15.90;;;17.70;99.90;;;;;;5037810;28;20095;-73
2022/10/03 09:00:51;;;;;;;26.23;14.80;;;18.00;99.90;;;;;;5036369;28;20685;-72
2022/10/03 09:03:50;;;;;;;25.92;14.15;;;18.00;99.90;;;;;;5035751;28;20393;-69
2022/10/03 09:06:48;;;;;;;24.08;14.07;;;17.50;99.90;;;;;;5053264;28;20048;-75
2022/10/03 09:09:36;;;;;;;31.15;13.32;;;16.60;99.90;;;;;;5036735;28;20083;-71
2022/10/03 09:12:30;;;;;;;28.95;14.77;;;15.80;99.90;;;;;;5053391;28;20481;-71
2022/10/03 09:15:17;;;;;;;26.25;14.27;;;15.20;99.90;;;;;;5035312;28;20033;-69
2022/10/03 09:18:21;;;;;;;28.42;14.00;;;15.10;99.90;;;;;;5035772;28;20036;-69
2022/10/03 09:21:16;;;;;;;23.08;13.80;;;15.00;99.90;;;;;;5053499;28;20025;-69
2022/10/03 09:24:24;;;;;;;28.77;15.75;;;14.80;99.90;;;;;;5035426;28;20021;-69
2022/10/03 09:27:25;;;;;;;26.10;15.10;;;15.00;99.90;;;;;;5036628;28;20028;-72
2022/10/03 09:30:11;;;;;;;24.27;14.90;;;15.20;99.90;;;;;;5054487;28;20071;-69
2022/10/03 09:33:06;;;;;;;20.70;12.93;;;15.50;99.90;;;;;;4986845;28;20079;-68
2022/10/03 09:35:56;;;;;;;21.75;12.13;;;16.20;99.90;;;;;;5053533;28;20036;-71
2022/10/03 09:38:54;;;;;;;24.35;13.93;;;16.30;99.90;;;;;;5053152;28;20048;-67
2022/10/03 09:41:43;;;;;;;28.00;12.52;;;15.80;99.90;;;;;;5035495;28;20025;-69
2022/10/03 09:44:35;;;;;;;24.20;13.25;;;15.40;99.90;;;;;;5055055;28;20025;-70
2022/10/03 09:47:49;;;;;;;22.48;10.70;;;15.50;99.90;;;;;;5057451;28;20024;-68
2022/10/03 09:50:52;;;;;;;18.60;10.80;;;16.40;99.90;;;;;;5057774;28;20017;-72
2022/10/03 09:53:51;;;;;;;17.90;9.20;;;18.40;99.90;;;;;;5039107;28;20025;-68
2022/10/03 09:56:29;;;;;;;14.15;7.90;;;20.50;99.90;;;;;;5048388;28;20033;-71
2022/10/03 09:59:13;;;;;;;15.35;6.75;;;21.30;99.90;;;;;;5039371;28;20389;-70
2022/10/03 10:01:49;;;;;;;17.65;7.35;;;23.20;99.90;;;;;;5039539;28;20025;-68
2022/10/03 10:04:39;;;;;;;13.20;7.28;;;25.50;96.00;;;;;;5057198;28;20024;-71
2022/10/03 10:07:32;;;;;;;14.55;6.85;;;24.20;95.10;;;;;;5056821;28;20025;-72
2022/10/03 10:10:45;;;;;;;17.88;6.97;;;24.00;95.30;;;;;;5057388;28;20465;-71
2022/10/03 10:13:38;;;;;;;12.23;6.80;;;25.00;94.20;;;;;;4979549;28;20045;-74
2022/10/03 10:16:24;;;;;;;17.15;7.20;;;23.70;96.20;;;;;;4997100;28;20022;-77
2022/10/03 10:19:14;;;;;;;12.00;5.60;;;24.90;94.20;;;;;;4996827;28;20030;-69
2022/10/03 10:22:11;;;;;;;16.20;6.38;;;25.60;93.60;;;;;;4995210;28;20030;-72
2022/10/03 10:24:36;;;;;;;11.13;5.93;;;27.60;91.40;;;;;;4994984;28;20034;-67
2022/10/03 10:27:41;;;;;;;9.88;5.55;;;28.50;90.00;;;;;;4995183;28;20105;-67
2022/10/03 10:30:44;;;;;;;15.98;6.05;;;28.40;87.70;;;;;;4994629;28;20077;-66
2022/10/03 10:33:34;;;;;;;15.10;5.88;;;29.70;83.90;;;;;;4978743;28;20101;-66
2022/10/03 10:36:30;;;;;;;12.70;5.00;;;28.40;83.80;;;;;;4993840;28;20061;-67
2022/10/03 10:39:21;;;;;;;11.48;4.32;;;28.20;83.70;;;;;;4995999;28;20467;-75
2022/10/03 10:42:30;;;;;;;9.35;4.28;;;29.60;80.70;;;;;;4995927;28;20033;-75
2022/10/03 10:45:14;;;;;;;12.65;4.65;;;29.90;79.00;;;;;;5037518;23;20037;-68
2022/10/03 10:47:59;;;;;;;13.55;4.85;;;29.80;79.00;;;;;;5052813;28;20037;-68
2022/10/03 10:50:54;;;;;;;11.13;4.22;;;28.90;78.90;;;;;;5047902;28;20032;-67
2022/10/03 10:53:53;;;;;;;13.23;6.38;;;27.80;79.90;;;;;;5034986;28;20056;-68
2022/10/03 10:56:21;;;;;;;12.32;3.97;;;27.00;81.40;;;;;;5035408;28;20030;-68
2022/10/03 10:59:07;;;;;;;9.45;4.03;;;24.70;84.20;;;;;;5035721;28;20053;-70
2022/10/03 11:01:52;;;;;;;12.18;4.20;;;23.20;88.60;;;;;;5035578;28;20104;-69
2022/10/03 11:04:57;;;;;;;14.40;5.43;;;21.40;91.50;;;;;;5036270;28;20017;-67
2022/10/03 11:07:34;;;;;;;12.45;4.55;;;20.20;94.00;;;;;;5015222;28;20045;-66
2022/10/03 11:10:06;;;;;;;10.45;3.67;;;19.50;95.80;;;;;;5036790;28;20026;-68
2022/10/03 11:12:57;;;;;;;11.10;3.72;;;19.00;96.20;;;;;;5036769;28;20025;-68
2022/10/03 11:16:02;;;;;;;12.25;3.72;;;18.50;97.30;;;;;;5043849;28;20021;-67
2022/10/03 11:19:05;;;;;;;11.45;4.40;;;17.90;99.40;;;;;;5056448;28;20025;-67
2022/10/03 11:22:10;;;;;;;10.68;5.32;;;17.50;99.90;;;;;;5057661;28;20074;-66
2022/10/03 11:25:11;;;;;;;11.45;3.85;;;17.30;99.90;;;;;;5058189;28;20025;-67
2022/10/03 11:27:52;;;;;;;11.68;4.07;;;16.50;99.90;;;;;;5058382;28;20044;-68
2022/10/03 11:30:42;;;;;;;15.30;4.88;;;16.40;99.90;;;;;;5058574;28;20036;-67
2022/10/03 11:33:40;;;;;;;12.65;5.05;;;16.30;99.90;;;;;;5061929;28;20032;-67
2022/10/03 11:36:26;;;;;;;;;;;16.40;99.90;;;;;;5058470;28;20032;-69
2022/10/03 11:39:10;;;;;;;28.55;5.78;;;16.50;99.90;;;;;;5055997;28;19905;-65
2022/10/03 11:42:03;;;;;;;12.95;4.75;;;16.50;99.90;;;;;;5056919;28;20489;-64
2022/10/03 11:44:39;;;;;;;13.95;5.10;;;16.70;99.90;;;;;;5055119;28;20025;-67
2022/10/03 11:47:34;;;;;;;12.60;4.45;;;16.70;99.90;;;;;;5055134;28;20025;-68
2022/10/03 11:50:15;;;;;;;11.30;4.15;;;16.60;99.90;;;;;;5053593;28;20079;-67
2022/10/03 11:53:19;;;;;;;11.55;3.75;;;16.60;99.90;;;;;;5053693;28;20024;-70
2022/10/03 11:56:08;;;;;;;10.40;3.88;;;16.50;99.90;;;;;;5036641;28;20367;-67
2022/10/03 11:59:09;;;;;;;9.20;3.97;;;16.60;99.90;;;;;;5053520;28;20021;-65
2022/10/03 12:01:55;;;;;;;10.60;3.35;;;16.70;99.90;;;;;;5054713;28;20024;-68
2022/10/03 12:04:50;;;;;;;8.48;3.25;;;17.00;99.90;;;;;;5054723;28;20395;-70
2022/10/03 12:11:05;;;;;;;9.20;3.42;;;17.80;99.90;;;;;;5054315;28;20086;-70
2022/10/03 12:14:05;;;;;;;7.82;2.92;;;18.00;99.90;;;;;;5054312;28;20020;-70
2022/10/03 12:17:09;;;;;;;11.18;3.55;;;17.80;99.90;;;;;;5033332;28;20030;-71
2022/10/03 12:20:14;;;;;;;9.40;3.47;;;17.90;99.90;;;;;;5034818;28;20047;-70
2022/10/03 12:22:56;;;;;;;10.68;3.92;;;17.80;99.90;;;;;;5033251;28;20040;-70
2022/10/03 12:25:29;;;;;;;7.07;3.35;;;17.60;99.90;;;;;;5034472;28;20524;-71
2022/10/03 12:28:45;;;;;;;12.10;4.20;;;17.40;99.90;;;;;;5034745;28;20026;-71
2022/10/03 12:31:29;;;;;;;9.48;4.03;;;17.20;99.90;;;;;;5012664;28;20026;-70
2022/10/03 12:34:04;;;;;;;7.60;3.33;;;16.80;99.90;;;;;;5012858;28;20403;-69
2022/10/03 12:36:59;;;;;;;9.82;3.67;;;16.80;99.90;;;;;;5012861;28;20577;-72
2022/10/03 12:39:45;;;;;;;13.63;4.20;;;16.80;99.90;;;;;;5012332;28;20038;-71
2022/10/03 12:42:29;;;;;;;9.85;3.78;;;16.70;99.90;;;;;;4996014;28;20486;-70
2022/10/03 12:45:05;;;;;;;6.75;4.10;;;16.80;99.90;;;;;;5017125;28;20041;-71
2022/10/03 12:47:47;;;;;;;11.32;4.15;;;16.80;99.90;;;;;;5031914;28;20481;-71
2022/10/03 12:50:16;;;;;;;10.52;4.28;;;16.50;99.90;;;;;;5031786;28;20085;-71
2022/10/03 12:52:48;;;;;;;8.73;3.75;;;16.50;99.90;;;;;;5031120;28;20052;-71
2022/10/03 12:55:26;;;;;;;9.40;4.07;;;16.60;99.90;;;;;;5031685;28;20030;-72
2022/10/03 12:58:01;;;;;;;8.38;3.20;;;16.80;99.90;;;;;;5031572;28;20064;-72
2022/10/03 13:00:40;;;;;;;10.25;3.85;;;16.90;99.90;;;;;;5030817;28;20664;-72
2022/10/03 13:03:51;;;;;;;8.40;3.30;;;17.20;99.90;;;;;;5031928;28;20030;-70
2022/10/03 13:06:20;;;;;;;7.88;2.92;;;17.40;99.90;;;;;;5048666;28;20581;-71
2022/10/03 13:09:09;;;;;;;8.52;3.13;;;17.50;99.90;;;;;;5052180;28;20175;-71
2022/10/03 13:11:45;;;;;;;5.20;2.50;;;17.40;99.90;;;;;;5053836;28;20017;-69
2022/10/03 13:14:37;;;;;;;6.22;2.60;;;17.20;99.90;;;;;;5053591;28;20017;-71
2022/10/03 13:17:09;;;;;;;8.55;3.20;;;17.10;99.90;;;;;;5052660;28;20041;-71
2022/10/03 13:19:53;;;;;;;5.90;2.40;;;17.30;99.90;;;;;;5051527;28;20385;-69
2022/10/03 13:22:43;;;;;;;7.30;2.80;;;17.20;99.90;;;;;;5053442;28;20014;-68
2022/10/03 13:25:30;;;;;;;9.48;2.90;;;17.10;99.90;;;;;;5053501;28;20032;-69
2022/10/03 13:28:07;;;;;;;11.93;3.33;;;17.30;99.90;;;;;;5052124;28;20032;-70
2022/10/03 13:30:52;;;;;;;7.40;2.58;;;17.40;99.90;;;;;;5053090;28;20021;-68
2022/10/03 13:33:31;;;;;;;8.13;2.70;;;17.40;99.80;;;;;;5053993;28;20087;-70
2022/10/03 13:36:08;;;;;;;6.20;2.90;;;17.50;99.90;;;;;;5052684;28;20032;-68
2022/10/03 13:38:57;;;;;;;9.10;2.63;;;17.60;99.80;;;;;;5053946;28;20449;-67
2022/10/03 13:41:43;;;;;;;6.03;2.75;;;17.30;98.20;;;;;;5053289;28;20021;-67
2022/10/03 13:44:35;;;;;;;5.57;2.65;;;17.30;99.20;;;;;;5053375;28;20029;-69
2022/10/03 13:47:43;;;;;;;8.15;2.90;;;17.30;99.60;;;;;;5052633;28;20065;-70
2022/10/03 13:50:30;;;;;;;7.60;3.50;;;17.40;99.90;;;;;;5051637;28;20067;-65
2022/10/03 13:53:08;;;;;;;8.43;2.63;;;17.60;99.90;;;;;;5051552;28;20031;-64
2022/10/03 13:56:00;;;;;;;7.22;2.47;;;17.60;99.90;;;;;;5054387;28;20031;-64
2022/10/03 13:59:04;;;;;;;6.68;2.70;;;17.60;99.90;;;;;;5057830;28;20087;-65
2022/10/03 14:01:35;;;;;;;8.20;2.80;;;17.60;99.90;;;;;;5052963;28;20031;-64
2022/10/03 14:04:01;;;;;;;6.57;3.05;;;17.50;99.90;;;;;;5053266;28;20025;-64
2022/10/03 14:06:33;;;;;;;7.20;2.50;;;17.50;99.90;;;;;;5052749;28;20032;-64
2022/10/03 14:09:20;;;;;;;6.32;2.65;;;17.40;99.90;;;;;;5053868;28;20033;-63
2022/10/03 14:11:51;;;;;;;4.82;2.33;;;17.40;99.90;;;;;;5052710;28;20569;-66
2022/10/03 14:14:23;;;;;;;5.85;2.35;;;17.40;99.90;;;;;;5053111;28;20020;-64
2022/10/03 14:17:17;;;;;;;7.13;2.55;;;17.40;99.90;;;;;;5052721;28;20045;-65
2022/10/03 14:19:45;;;;;;;6.60;2.50;;;17.30;99.90;;;;;;5052993;28;20025;-64
2022/10/03 14:22:27;;;;;;;7.35;2.10;;;17.20;99.90;;;;;;5052554;28;20378;-65
2022/10/03 14:25:14;;;;;;;6.80;2.50;;;17.10;99.90;;;;;;5052587;28;20079;-65
2022/10/03 14:28:04;;;;;;;8.00;2.80;;;17.00;99.90;;;;;;5052961;28;20021;-65
2022/10/03 14:30:43;;;;;;;9.00;3.97;;;16.90;99.90;;;;;;5053077;28;20510;-65
2022/10/03 14:33:26;;;;;;;8.52;2.65;;;16.80;99.90;;;;;;5057487;28;20021;-64
2022/10/03 14:36:11;;;;;;;6.63;2.30;;;16.80;99.90;;;;;;5055701;28;20063;-65
2022/10/03 14:39:02;;;;;;;8.25;2.65;;;16.80;99.90;;;;;;5040048;28;20083;-64